@aerospacetalk
صفحه 42 از 50 نخستنخست ... 222273236373839404142434445464748 ... آخرینآخرین
نمایش نتایج: از شماره 411 تا 420 , از مجموع 500

جستار: نگارخانه ویژه سران ارشد کشور؛گفتگو

  1. #411
    مدیر انجمن اخبار هوافضا و عضو گروه خبری
    تاریخ عضویت
    Jan 2008
    محل سکونت
    سرزمین مادری
    نوشته ها
    12,036
    سپاسگزاری
    41,961
    سپاسگزاری شده : 89,336 بار در 10,555 پست
    قدرت امتیازدهی
    690
    Array

    پیش فرض پاسخ : نگارخانه ویژه سران ارشد کشور؛گفتگو



  2. #412


  3. #413
    مدیر بخش هوانوردی نظامی
    تاریخ عضویت
    Feb 2011
    محل سکونت
    کرمانشاه هان
    سن
    42
    نوشته ها
    3,814
    سپاسگزاری
    31,402
    سپاسگزاری شده : 48,413 بار در 3,713 پست
    قدرت امتیازدهی
    501
    Array

    پیش فرض نگارخانه ویژه سران ارشد کشور؛گفتگو

    بنام خدا
    درود بر ایران و ایرانـــــیان اریــــــایی

    برافراشته باددرفش سرفرازکاویانی






    یادواره مردانگی و فروتنی و میهن دوستی
    پاسارگاد

    نوروز1395

    چه خوشه بال گرفتن
    پر و بالی اگه باشه
    رو سر بان نشتن
    شور و حالی اگه باشه
    چه خوشه عاشقی و حال پریشانی و شیتی
    هم ازو خالِ قدیما
    خط و خالی اگه باشه
    چه خوشه پیری و دل خوش کنکِ یاد جوانی
    هم پیاله ی قدرِ هم سن و سالی اگه باشه
    چه خوشه میلِ جوانی و بهار و پرِ باغی
    خرم سر چمن و آو زلالی اگه باشه
    چه خوشه حرف دل اَ دهن ساز شنیدن
    سینه سوخته ی بزنه ش
    سازِ بنالی اگه باشه
    چه خوشه با تو بنیشم دمی و وخته بمیرم
    سیر سیلت بکنم
    سیرمجالی اگه باشه





  4. #414


  5. #415


  6. #416


  7. #417
    Group Captain
    تاریخ عضویت
    Jul 2010
    محل سکونت
    Tehran
    نوشته ها
    1,772
    سپاسگزاری
    9,460
    سپاسگزاری شده : 18,149 بار در 1,770 پست
    قدرت امتیازدهی
    198
    Array


  8. #418
    مدیر انجمن اخبار هوافضا و عضو گروه خبری
    تاریخ عضویت
    Jan 2008
    محل سکونت
    سرزمین مادری
    نوشته ها
    12,036
    سپاسگزاری
    41,961
    سپاسگزاری شده : 89,336 بار در 10,555 پست
    قدرت امتیازدهی
    690
    Array
    ویرایش توسط kermanshahy : 29-04-2015 در ساعت 16:53 دلیل: کوچک نمودن فرتور


  9. #419
    Aviation Structural Mechanic
    تاریخ عضویت
    Sep 2008
    سن
    25
    نوشته ها
    225
    سپاسگزاری
    783
    سپاسگزاری شده : 1,999 بار در 225 پست
    قدرت امتیازدهی
    30
    Array

    پیش فرض پاسخ : نگارخانه ویژه سران ارشد کشور؛گفتگو

    OIGG 150730Z 30008KT 1500 BR OVC005 13/13 Q1018
    OIGG 150700Z 30008KT 1500 BR OVC005 13/13 Q1018
    OIGG 150630Z 33008KT 0800 FG OVC005 11/11 Q1018
    OIGG 150600Z VRB02KT 0600 FG VV003 11/11 Q1018
    OIGG 150530Z VRB02KT 0400 FG VV003 12/12 Q1018
    OIGG 150500Z VRB02KT 0100 FG VV003 11/11 Q1018
    OIGG 150430Z 28004KT 0100 FG VV002 10/10 Q1018
    OIGG 150400Z 28004KT 0100 FG VV002 10/10 Q1017
    OIGG 150330Z 00000KT 0500 FG NSC 08/08 Q1016

    پرواز ایشان به علت وضعیت جوی فوق با حدود ۲ ساعت تاخیر انجام شد.


  10. #420
    عضو گروه هوانوردی نظامی و سرپرست انجمن های هوانیروز و هوادریا
    تاریخ عضویت
    Jan 2008
    محل سکونت
    اَبَر خوشۀ سنبله
    نوشته ها
    4,337
    سپاسگزاری
    48,205
    سپاسگزاری شده : 54,931 بار در 4,323 پست
    قدرت امتیازدهی
    543
    Array

    پیش فرض پاسخ : نگارخانه ویژه سران ارشد کشور؛گفتگو

    کمی پیش از پرواز تهران-رشت دیروز ِ گلف-براوو, گل باقلی این پرواز از مهرآباد به مهرآباد رو داشت:
    گمان میکنم این دست پروازهای آزمایشی/ایمنی پیش از پرواز VIP هایی همچون دکتر روحانی, روش جا افتاده ای هست که در دیگر کشورها نیز برای فرنشینانشون انجام میشود
    قانونهای انجمن هوانوردی و هوافضای پارسی
    همه را بخوانیم و به تکتکشان پایبند باشیم

    -----------------------------------------------------

    ایکاش هر ایرانی دستکم یکبار شاهنامۀ فردوسی رو بخونه...بویژه بخش "پادشاهی یزدگرد" رو (اینجا).

    استاد سخن, سعدی میفرماید:
    طاعت آن نیست که بر خاک نهی پیشانی صدق پیش آر که اخلاص به پیشانی نیست
    بنپایه: (اینجا)

    اندازه ها از کوچکترین تا بزرگترین - بسیار دیدنی و اندیشه برانگیز


صفحه 42 از 50 نخستنخست ... 222273236373839404142434445464748 ... آخرینآخرین

برچسب ها برای این جستار

مجوز های ارسال و ویرایش

  • شما نمیتوانید جستار جدیدی ارسال کنید
  • شما امکان فرستادن پاسخ را ندارید
  • شما نمیتوانید فایل پیوست در نوشته خود ضمیمه کنید
  • شما نمیتوانید نوشته های خود را ویرایش کنید
  •